VOZ1140 YBNA-YSSY
Flight info
| Callsign | VOZ1140 |
|---|---|
| Flight time | 0h 59m |
| Altitude | 40000 |
| Route | DCT BNA W494 IDNER H98 SANAD H91 IGDAM H652 BOREE DCT |
| Aircraft | B737/M-SDE3FGHIRWZ/LB1 |
Departure
| Time | 2026-05-05 03:08 |
|---|---|
| Airport | Ballina Byron Gateway Airport (YBNA) |
Arrival
| Time | 2026-05-05 04:07 |
|---|---|
| Airport | Sydney Kingsford Smith International Airport (YSSY) |
| Time | Latitude | Longitude | Altitude | Speed | Heading |
|---|---|---|---|---|---|
| 2026-05-05 02:51 | -28.83676 | 153.55691 | 13 ft | 0 kts | 207° |
| 2026-05-05 03:04 | -28.83680 | 153.55686 | 20 ft | 3 kts | 237° |
| 2026-05-05 03:04 | -28.83662 | 153.55672 | 20 ft | 5 kts | 21° |
| 2026-05-05 03:05 | -28.83605 | 153.55696 | 13 ft | 11 kts | 4° |
| 2026-05-05 03:05 | -28.83554 | 153.55680 | 12 ft | 12 kts | 342° |
| 2026-05-05 03:05 | -28.83480 | 153.55654 | 13 ft | 7 kts | 335° |
| 2026-05-05 03:05 | -28.83467 | 153.55590 | 13 ft | 7 kts | 259° |
| 2026-05-05 03:06 | -28.83491 | 153.55497 | 12 ft | 18 kts | 253° |
| 2026-05-05 03:06 | -28.83530 | 153.55349 | 10 ft | 20 kts | 252° |
| 2026-05-05 03:06 | -28.83554 | 153.55257 | 10 ft | 13 kts | 252° |
| 2026-05-05 03:06 | -28.83586 | 153.55208 | 10 ft | 3 kts | 259° |
| 2026-05-05 03:07 | -28.83569 | 153.55202 | 11 ft | 3 kts | 35° |
| 2026-05-05 03:07 | -28.83561 | 153.55229 | 10 ft | 4 kts | 74° |
| 2026-05-05 03:07 | -28.83499 | 153.55469 | 12 ft | 76 kts | 73° |
| 2026-05-05 03:07 | -28.83261 | 153.56369 | 28 ft | 156 kts | 72° |
| 2026-05-05 03:08 | -28.82927 | 153.57681 | 654 ft | 181 kts | 75° |
| 2026-05-05 03:08 | -28.82588 | 153.59061 | 1772 ft | 180 kts | 72° |
| 2026-05-05 03:08 | -28.82344 | 153.60547 | 2328 ft | 213 kts | 95° |
| 2026-05-05 03:08 | -28.82904 | 153.62206 | 2725 ft | 239 kts | 130° |
| 2026-05-05 03:09 | -28.84270 | 153.63382 | 3275 ft | 259 kts | 160° |
| 2026-05-05 03:09 | -28.86065 | 153.63622 | 4198 ft | 265 kts | 190° |
| 2026-05-05 03:09 | -28.87748 | 153.62833 | 5404 ft | 264 kts | 217° |
| 2026-05-05 03:09 | -28.88933 | 153.61227 | 6462 ft | 271 kts | 246° |
| 2026-05-05 03:10 | -28.89195 | 153.59095 | 7436 ft | 279 kts | 278° |
| 2026-05-05 03:10 | -28.88644 | 153.56987 | 8445 ft | 284 kts | 290° |
| 2026-05-05 03:10 | -28.87905 | 153.54876 | 9425 ft | 290 kts | 291° |
| 2026-05-05 03:10 | -28.87123 | 153.52733 | 10345 ft | 297 kts | 291° |
| 2026-05-05 03:11 | -28.86295 | 153.50472 | 10739 ft | 323 kts | 291° |
| 2026-05-05 03:11 | -28.85405 | 153.48039 | 11355 ft | 336 kts | 291° |
| 2026-05-05 03:11 | -28.84714 | 153.45488 | 12264 ft | 338 kts | 276° |
| 2026-05-05 03:11 | -28.84737 | 153.42817 | 13274 ft | 338 kts | 264° |
| 2026-05-05 03:12 | -28.84977 | 153.40129 | 14154 ft | 343 kts | 264° |
| 2026-05-05 03:12 | -28.85231 | 153.37406 | 14980 ft | 347 kts | 265° |
| 2026-05-05 03:12 | -28.85468 | 153.34662 | 15876 ft | 348 kts | 266° |
| 2026-05-05 03:12 | -28.85685 | 153.31903 | 16763 ft | 350 kts | 267° |
| 2026-05-05 03:13 | -28.85888 | 153.29127 | 17603 ft | 353 kts | 268° |
| 2026-05-05 03:13 | -28.86082 | 153.26319 | 18411 ft | 356 kts | 269° |
| 2026-05-05 03:13 | -28.86272 | 153.23494 | 19174 ft | 356 kts | 269° |
| 2026-05-05 03:13 | -28.86459 | 153.20686 | 20067 ft | 353 kts | 269° |
| 2026-05-05 03:14 | -28.86644 | 153.17894 | 20942 ft | 352 kts | 269° |
| 2026-05-05 03:14 | -28.86825 | 153.15148 | 21757 ft | 351 kts | 269° |
| 2026-05-05 03:14 | -28.87008 | 153.12357 | 22554 ft | 351 kts | 270° |
| 2026-05-05 03:14 | -28.87202 | 153.09583 | 23317 ft | 353 kts | 267° |
| 2026-05-05 03:15 | -28.87915 | 153.06868 | 23953 ft | 366 kts | 250° |
| 2026-05-05 03:15 | -28.89313 | 153.04386 | 24518 ft | 379 kts | 238° |
| 2026-05-05 03:15 | -28.91315 | 153.02294 | 25009 ft | 401 kts | 222° |
| 2026-05-05 03:15 | -28.93695 | 153.00648 | 25564 ft | 408 kts | 218° |
| 2026-05-05 03:16 | -28.96217 | 152.99054 | 26184 ft | 410 kts | 217° |
| 2026-05-05 03:16 | -28.98694 | 152.97538 | 26902 ft | 407 kts | 217° |
| 2026-05-05 03:16 | -29.01212 | 152.96000 | 27305 ft | 415 kts | 218° |
| 2026-05-05 03:16 | -29.03781 | 152.94407 | 27513 ft | 425 kts | 218° |
| 2026-05-05 03:17 | -29.06381 | 152.92783 | 28052 ft | 425 kts | 218° |
| 2026-05-05 03:17 | -29.08965 | 152.91163 | 28810 ft | 421 kts | 219° |
| 2026-05-05 03:17 | -29.11512 | 152.89562 | 29612 ft | 416 kts | 219° |
| 2026-05-05 03:17 | -29.14037 | 152.87965 | 30282 ft | 414 kts | 219° |
| 2026-05-05 03:18 | -29.16587 | 152.86338 | 30457 ft | 425 kts | 220° |
| 2026-05-05 03:18 | -29.19192 | 152.84664 | 30534 ft | 436 kts | 220° |
| 2026-05-05 03:18 | -29.21867 | 152.82943 | 30715 ft | 443 kts | 220° |
| 2026-05-05 03:18 | -29.24567 | 152.81213 | 31034 ft | 446 kts | 220° |
| 2026-05-05 03:19 | -29.29973 | 152.77777 | 31890 ft | 446 kts | 220° |
| 2026-05-05 03:19 | -29.32684 | 152.76053 | 32383 ft | 443 kts | 220° |
| 2026-05-05 03:19 | -29.35371 | 152.74344 | 32957 ft | 439 kts | 220° |
| 2026-05-05 03:20 | -29.38027 | 152.72653 | 33556 ft | 435 kts | 221° |
| 2026-05-05 03:20 | -29.40665 | 152.70969 | 34077 ft | 431 kts | 221° |
| 2026-05-05 03:20 | -29.43284 | 152.69293 | 34454 ft | 430 kts | 221° |
| 2026-05-05 03:20 | -29.45900 | 152.67611 | 34718 ft | 431 kts | 221° |
| 2026-05-05 03:21 | -29.48493 | 152.65942 | 34974 ft | 432 kts | 221° |
| 2026-05-05 03:21 | -29.51148 | 152.64240 | 35369 ft | 430 kts | 222° |
| 2026-05-05 03:21 | -29.53716 | 152.62594 | 35702 ft | 428 kts | 222° |
| 2026-05-05 03:21 | -29.56323 | 152.60916 | 35936 ft | 430 kts | 223° |
| 2026-05-05 03:22 | -29.58931 | 152.59235 | 36225 ft | 430 kts | 223° |
| 2026-05-05 03:22 | -29.61537 | 152.57558 | 36597 ft | 428 kts | 223° |
| 2026-05-05 03:22 | -29.64133 | 152.55888 | 36953 ft | 426 kts | 223° |
| 2026-05-05 03:22 | -29.66727 | 152.54221 | 37200 ft | 427 kts | 223° |
| 2026-05-05 03:23 | -29.69327 | 152.52549 | 37410 ft | 428 kts | 223° |
| 2026-05-05 03:23 | -29.71915 | 152.50864 | 37668 ft | 427 kts | 224° |
| 2026-05-05 03:23 | -29.74493 | 152.49193 | 37976 ft | 425 kts | 224° |
| 2026-05-05 03:23 | -29.77080 | 152.47521 | 38169 ft | 426 kts | 224° |
| 2026-05-05 03:24 | -29.79634 | 152.45875 | 38445 ft | 426 kts | 224° |
| 2026-05-05 03:24 | -29.82222 | 152.44203 | 38639 ft | 426 kts | 224° |
| 2026-05-05 03:24 | -29.84803 | 152.42537 | 38983 ft | 423 kts | 224° |
| 2026-05-05 03:24 | -29.87363 | 152.40892 | 39294 ft | 419 kts | 224° |
| 2026-05-05 03:25 | -29.92479 | 152.37576 | 39503 ft | 422 kts | 224° |
| 2026-05-05 03:25 | -29.95043 | 152.35914 | 39688 ft | 422 kts | 224° |
| 2026-05-05 03:25 | -29.97601 | 152.34255 | 39918 ft | 420 kts | 224° |
| 2026-05-05 03:26 | -30.00151 | 152.32605 | 40091 ft | 421 kts | 223° |
| 2026-05-05 03:26 | -30.02712 | 152.30935 | 40077 ft | 424 kts | 223° |
| 2026-05-05 03:26 | -30.07843 | 152.27644 | 40108 ft | 423 kts | 222° |
| 2026-05-05 03:27 | -30.12980 | 152.24399 | 40125 ft | 419 kts | 223° |
| 2026-05-05 03:27 | -30.18032 | 152.21046 | 40102 ft | 418 kts | 224° |
| 2026-05-05 03:28 | -30.23079 | 152.17693 | 40108 ft | 418 kts | 224° |
| 2026-05-05 03:28 | -30.28138 | 152.14369 | 40109 ft | 417 kts | 223° |
| 2026-05-05 03:29 | -30.33169 | 152.11076 | 40109 ft | 417 kts | 223° |
| 2026-05-05 03:29 | -30.38230 | 152.07762 | 40100 ft | 417 kts | 223° |
| 2026-05-05 03:30 | -30.43277 | 152.04453 | 40109 ft | 416 kts | 223° |
| 2026-05-05 03:30 | -30.48322 | 152.01141 | 40128 ft | 417 kts | 223° |
| 2026-05-05 03:31 | -30.53358 | 151.97830 | 40108 ft | 419 kts | 223° |
| 2026-05-05 03:31 | -30.58447 | 151.94482 | 40107 ft | 422 kts | 223° |
| 2026-05-05 03:32 | -30.63559 | 151.91102 | 40114 ft | 424 kts | 223° |
| 2026-05-05 03:32 | -30.68715 | 151.87713 | 40140 ft | 424 kts | 223° |
| 2026-05-05 03:33 | -30.73840 | 151.84330 | 40128 ft | 426 kts | 223° |
| 2026-05-05 03:33 | -30.79009 | 151.80912 | 40102 ft | 427 kts | 223° |
| 2026-05-05 03:34 | -30.84178 | 151.77499 | 40100 ft | 428 kts | 223° |
| 2026-05-05 03:34 | -30.89344 | 151.74074 | 40112 ft | 426 kts | 223° |
| 2026-05-05 03:35 | -30.94502 | 151.70646 | 40119 ft | 427 kts | 223° |
| 2026-05-05 03:35 | -30.99665 | 151.67215 | 40108 ft | 426 kts | 223° |
| 2026-05-05 03:36 | -31.04780 | 151.63815 | 40104 ft | 425 kts | 223° |
| 2026-05-05 03:36 | -31.09900 | 151.60405 | 40119 ft | 423 kts | 223° |
| 2026-05-05 03:37 | -31.15001 | 151.57004 | 40135 ft | 421 kts | 223° |
| 2026-05-05 03:37 | -31.20084 | 151.53608 | 40117 ft | 420 kts | 223° |
| 2026-05-05 03:38 | -31.25139 | 151.50227 | 40127 ft | 418 kts | 223° |
| 2026-05-05 03:38 | -31.30199 | 151.46837 | 40119 ft | 417 kts | 223° |
| 2026-05-05 03:39 | -31.35204 | 151.43483 | 40152 ft | 416 kts | 222° |
| 2026-05-05 03:39 | -31.40374 | 151.40311 | 40120 ft | 429 kts | 214° |
| 2026-05-05 03:40 | -31.45976 | 151.37824 | 40125 ft | 431 kts | 213° |
| 2026-05-05 03:40 | -31.51600 | 151.35382 | 40125 ft | 431 kts | 213° |
| 2026-05-05 03:41 | -31.57209 | 151.32907 | 40173 ft | 430 kts | 213° |
| 2026-05-05 03:41 | -31.62831 | 151.30396 | 40142 ft | 431 kts | 213° |
| 2026-05-05 03:42 | -31.68439 | 151.27882 | 40127 ft | 432 kts | 213° |
| 2026-05-05 03:42 | -31.74015 | 151.25381 | 40132 ft | 430 kts | 213° |
| 2026-05-05 03:43 | -31.79611 | 151.22872 | 40132 ft | 429 kts | 212° |
| 2026-05-05 03:43 | -31.85205 | 151.20358 | 40157 ft | 431 kts | 212° |
| 2026-05-05 03:44 | -31.90818 | 151.17816 | 39989 ft | 440 kts | 212° |
| 2026-05-05 03:44 | -31.93708 | 151.16508 | 39544 ft | 446 kts | 212° |
| 2026-05-05 03:44 | -31.96612 | 151.15210 | 38999 ft | 446 kts | 213° |
| 2026-05-05 03:45 | -31.99510 | 151.13919 | 38439 ft | 444 kts | 213° |
| 2026-05-05 03:45 | -32.02400 | 151.12630 | 37760 ft | 443 kts | 212° |
| 2026-05-05 03:45 | -32.05279 | 151.11342 | 37127 ft | 442 kts | 212° |
| 2026-05-05 03:45 | -32.08145 | 151.10059 | 36477 ft | 441 kts | 211° |
| 2026-05-05 03:46 | -32.11016 | 151.08778 | 35851 ft | 440 kts | 212° |
| 2026-05-05 03:46 | -32.13881 | 151.07473 | 35150 ft | 441 kts | 211° |
| 2026-05-05 03:46 | -32.16768 | 151.06165 | 34408 ft | 446 kts | 211° |
| 2026-05-05 03:46 | -32.19647 | 151.04864 | 33587 ft | 452 kts | 211° |
| 2026-05-05 03:47 | -32.22611 | 151.03523 | 32776 ft | 460 kts | 211° |
| 2026-05-05 03:47 | -32.25650 | 151.02145 | 31882 ft | 473 kts | 210° |
| 2026-05-05 03:47 | -32.28731 | 151.00761 | 31257 ft | 471 kts | 210° |
| 2026-05-05 03:47 | -32.31794 | 150.99390 | 30590 ft | 469 kts | 210° |
| 2026-05-05 03:48 | -32.34834 | 150.98025 | 29948 ft | 466 kts | 210° |
| 2026-05-05 03:48 | -32.37853 | 150.96664 | 29287 ft | 461 kts | 210° |
| 2026-05-05 03:48 | -32.40839 | 150.95313 | 28635 ft | 456 kts | 210° |
| 2026-05-05 03:48 | -32.43784 | 150.93980 | 28019 ft | 450 kts | 209° |
| 2026-05-05 03:49 | -32.46684 | 150.92723 | 27417 ft | 449 kts | 205° |
| 2026-05-05 03:49 | -32.49760 | 150.91949 | 26800 ft | 454 kts | 194° |
| 2026-05-05 03:49 | -32.52928 | 150.91743 | 26099 ft | 457 kts | 185° |
| 2026-05-05 03:49 | -32.56082 | 150.92140 | 25511 ft | 452 kts | 178° |
| 2026-05-05 03:50 | -32.59161 | 150.92731 | 24896 ft | 444 kts | 176° |
| 2026-05-05 03:50 | -32.62175 | 150.93342 | 24326 ft | 433 kts | 176° |
| 2026-05-05 03:50 | -32.65115 | 150.93922 | 23765 ft | 424 kts | 177° |
| 2026-05-05 03:50 | -32.67033 | 150.94283 | 23359 ft | 417 kts | 177° |
| 2026-05-05 03:51 | -32.69872 | 150.94802 | 22726 ft | 408 kts | 177° |
| 2026-05-05 03:51 | -32.72644 | 150.95298 | 22191 ft | 398 kts | 177° |
| 2026-05-05 03:51 | -32.75367 | 150.95785 | 21629 ft | 393 kts | 176° |
| 2026-05-05 03:51 | -32.78063 | 150.96268 | 21089 ft | 390 kts | 177° |
| 2026-05-05 03:52 | -32.81627 | 150.96904 | 20686 ft | 394 kts | 176° |
| 2026-05-05 03:52 | -32.83472 | 150.97230 | 20532 ft | 397 kts | 176° |
| 2026-05-05 03:52 | -32.86202 | 150.97705 | 20078 ft | 397 kts | 176° |
| 2026-05-05 03:52 | -32.88884 | 150.98181 | 19570 ft | 392 kts | 175° |
| 2026-05-05 03:53 | -32.91576 | 150.98663 | 19045 ft | 389 kts | 175° |
| 2026-05-05 03:53 | -32.94253 | 150.99139 | 18475 ft | 387 kts | 174° |
| 2026-05-05 03:53 | -32.96907 | 150.99614 | 17867 ft | 385 kts | 174° |
| 2026-05-05 03:53 | -32.99550 | 151.00087 | 17280 ft | 382 kts | 174° |
| 2026-05-05 03:54 | -33.02164 | 151.00554 | 16720 ft | 378 kts | 174° |
| 2026-05-05 03:54 | -33.04756 | 151.01017 | 16179 ft | 374 kts | 175° |
| 2026-05-05 03:54 | -33.07286 | 151.01470 | 15652 ft | 370 kts | 175° |
| 2026-05-05 03:54 | -33.09826 | 151.01923 | 15114 ft | 367 kts | 175° |
| 2026-05-05 03:55 | -33.12346 | 151.02372 | 14585 ft | 364 kts | 175° |
| 2026-05-05 03:55 | -33.14842 | 151.02817 | 14060 ft | 362 kts | 175° |
| 2026-05-05 03:55 | -33.17325 | 151.03260 | 13484 ft | 359 kts | 175° |
| 2026-05-05 03:55 | -33.19787 | 151.03700 | 12918 ft | 356 kts | 175° |
| 2026-05-05 03:56 | -33.22229 | 151.04137 | 12369 ft | 353 kts | 175° |
| 2026-05-05 03:56 | -33.24646 | 151.04570 | 11855 ft | 350 kts | 174° |
| 2026-05-05 03:56 | -33.27040 | 151.05024 | 11361 ft | 346 kts | 174° |
| 2026-05-05 03:56 | -33.29403 | 151.05482 | 10852 ft | 343 kts | 174° |
| 2026-05-05 03:57 | -33.31738 | 151.05935 | 10524 ft | 335 kts | 174° |
| 2026-05-05 03:57 | -33.33980 | 151.06368 | 10271 ft | 317 kts | 174° |
| 2026-05-05 03:57 | -33.36086 | 151.06775 | 10106 ft | 298 kts | 174° |
| 2026-05-05 03:57 | -33.38088 | 151.07161 | 9996 ft | 286 kts | 174° |
| 2026-05-05 03:58 | -33.40044 | 151.07534 | 9625 ft | 284 kts | 174° |
| 2026-05-05 03:58 | -33.41960 | 151.07897 | 9284 ft | 281 kts | 174° |
| 2026-05-05 03:58 | -33.43888 | 151.08266 | 8955 ft | 280 kts | 174° |
| 2026-05-05 03:58 | -33.45807 | 151.08633 | 8596 ft | 278 kts | 174° |
| 2026-05-05 03:59 | -33.47714 | 151.08999 | 8244 ft | 277 kts | 173° |
| 2026-05-05 03:59 | -33.49607 | 151.09364 | 7904 ft | 274 kts | 173° |
| 2026-05-05 03:59 | -33.51489 | 151.09727 | 7566 ft | 273 kts | 173° |
| 2026-05-05 03:59 | -33.53339 | 151.10083 | 7227 ft | 271 kts | 173° |
| 2026-05-05 04:00 | -33.55197 | 151.10440 | 6888 ft | 270 kts | 172° |
| 2026-05-05 04:00 | -33.57044 | 151.10795 | 6556 ft | 268 kts | 172° |
| 2026-05-05 04:00 | -33.58887 | 151.11150 | 6203 ft | 268 kts | 172° |
| 2026-05-05 04:00 | -33.60724 | 151.11505 | 5841 ft | 266 kts | 172° |
| 2026-05-05 04:01 | -33.62548 | 151.11802 | 5528 ft | 262 kts | 176° |
| 2026-05-05 04:01 | -33.64358 | 151.12004 | 5219 ft | 259 kts | 177° |
| 2026-05-05 04:01 | -33.66147 | 151.12195 | 4895 ft | 256 kts | 178° |
| 2026-05-05 04:01 | -33.67914 | 151.12393 | 4547 ft | 253 kts | 177° |
| 2026-05-05 04:02 | -33.69644 | 151.12588 | 4215 ft | 252 kts | 176° |
| 2026-05-05 04:02 | -33.71368 | 151.12796 | 4032 ft | 244 kts | 175° |
| 2026-05-05 04:02 | -33.73035 | 151.13114 | 3758 ft | 241 kts | 171° |
| 2026-05-05 04:02 | -33.74664 | 151.13519 | 3522 ft | 237 kts | 169° |
| 2026-05-05 04:03 | -33.76263 | 151.13939 | 3272 ft | 233 kts | 170° |
| 2026-05-05 04:03 | -33.77833 | 151.14352 | 3076 ft | 227 kts | 170° |
| 2026-05-05 04:03 | -33.79327 | 151.14743 | 3031 ft | 211 kts | 171° |
| 2026-05-05 04:03 | -33.80683 | 151.15098 | 2888 ft | 198 kts | 170° |
| 2026-05-05 04:04 | -33.81998 | 151.15441 | 2646 ft | 191 kts | 170° |
| 2026-05-05 04:04 | -33.83265 | 151.15770 | 2400 ft | 180 kts | 170° |
| 2026-05-05 04:04 | -33.84441 | 151.16079 | 2156 ft | 166 kts | 171° |
| 2026-05-05 04:04 | -33.85531 | 151.16363 | 1935 ft | 155 kts | 169° |
| 2026-05-05 04:05 | -33.86550 | 151.16629 | 1749 ft | 147 kts | 171° |
| 2026-05-05 04:05 | -33.87519 | 151.16881 | 1579 ft | 142 kts | 169° |
| 2026-05-05 04:05 | -33.88482 | 151.17135 | 1378 ft | 140 kts | 171° |
| 2026-05-05 04:05 | -33.89431 | 151.17399 | 1210 ft | 138 kts | 170° |
| 2026-05-05 04:06 | -33.90361 | 151.17653 | 1010 ft | 137 kts | 172° |
| 2026-05-05 04:06 | -33.91296 | 151.17868 | 832 ft | 138 kts | 171° |
| 2026-05-05 04:06 | -33.92234 | 151.18112 | 659 ft | 140 kts | 170° |
| 2026-05-05 04:06 | -33.93191 | 151.18365 | 491 ft | 141 kts | 169° |
| 2026-05-05 04:07 | -33.94150 | 151.18628 | 291 ft | 140 kts | 173° |
| 2026-05-05 04:07 | -33.95097 | 151.18866 | 66 ft | 138 kts | 172° |
| 2026-05-05 04:07 | -33.95942 | 151.19083 | 27 ft | 97 kts | 168° |
| 2026-05-05 04:07 | -33.96389 | 151.19197 | 26 ft | 35 kts | 166° |
| 2026-05-05 04:08 | -33.96456 | 151.19215 | 27 ft | 3 kts | 171° |
| 2026-05-05 04:08 | -33.96544 | 151.19220 | 25 ft | 16 kts | 179° |
| 2026-05-05 04:08 | -33.96650 | 151.19190 | 26 ft | 15 kts | 197° |
| 2026-05-05 04:08 | -33.96716 | 151.19129 | 28 ft | 13 kts | 265° |
| 2026-05-05 04:09 | -33.96656 | 151.19065 | 29 ft | 12 kts | 348° |
| 2026-05-05 04:09 | -33.96567 | 151.19044 | 29 ft | 14 kts | 348° |
| 2026-05-05 04:09 | -33.96458 | 151.19016 | 29 ft | 18 kts | 348° |
| 2026-05-05 04:09 | -33.96330 | 151.18982 | 29 ft | 20 kts | 348° |
| 2026-05-05 04:10 | -33.96183 | 151.18944 | 29 ft | 23 kts | 348° |
| 2026-05-05 04:10 | -33.96020 | 151.18902 | 29 ft | 25 kts | 348° |
| 2026-05-05 04:10 | -33.95851 | 151.18858 | 29 ft | 24 kts | 348° |
| 2026-05-05 04:10 | -33.95693 | 151.18817 | 29 ft | 23 kts | 348° |
| 2026-05-05 04:11 | -33.95538 | 151.18777 | 29 ft | 24 kts | 347° |
| 2026-05-05 04:11 | -33.95377 | 151.18735 | 29 ft | 23 kts | 347° |
| 2026-05-05 04:11 | -33.95233 | 151.18669 | 29 ft | 22 kts | 325° |
| 2026-05-05 04:11 | -33.95125 | 151.18539 | 29 ft | 22 kts | 297° |
| 2026-05-05 04:12 | -33.95126 | 151.18363 | 29 ft | 21 kts | 258° |
| 2026-05-05 04:12 | -33.95157 | 151.18193 | 29 ft | 21 kts | 257° |
| 2026-05-05 04:12 | -33.95187 | 151.18030 | 29 ft | 18 kts | 259° |
| 2026-05-05 04:12 | -33.95107 | 151.17945 | 29 ft | 17 kts | 349° |
| 2026-05-05 04:13 | -33.94990 | 151.17915 | 29 ft | 18 kts | 348° |
| 2026-05-05 04:13 | -33.94864 | 151.17882 | 29 ft | 20 kts | 348° |
| 2026-05-05 04:13 | -33.94723 | 151.17845 | 29 ft | 22 kts | 347° |
| 2026-05-05 04:13 | -33.94563 | 151.17804 | 29 ft | 25 kts | 347° |
| 2026-05-05 04:14 | -33.94387 | 151.17752 | 29 ft | 26 kts | 345° |
| 2026-05-05 04:14 | -33.94221 | 151.17701 | 28 ft | 24 kts | 345° |
| 2026-05-05 04:14 | -33.94066 | 151.17655 | 27 ft | 23 kts | 347° |
| 2026-05-05 04:14 | -33.93922 | 151.17616 | 28 ft | 15 kts | 347° |
| 2026-05-05 04:15 | -33.93861 | 151.17689 | 28 ft | 14 kts | 76° |
| 2026-05-05 04:15 | -33.93835 | 151.17799 | 29 ft | 13 kts | 73° |
| 2026-05-05 04:15 | -33.93810 | 151.17905 | 29 ft | 13 kts | 76° |
| 2026-05-05 04:15 | -33.93783 | 151.18018 | 29 ft | 13 kts | 74° |
| 2026-05-05 04:16 | -33.93723 | 151.18062 | 29 ft | 12 kts | 348° |
| 2026-05-05 04:16 | -33.93648 | 151.18049 | 29 ft | 9 kts | 350° |
| 2026-05-05 04:16 | -33.93637 | 151.17996 | 29 ft | 3 kts | 277° |
| 2026-05-05 04:16 | -33.93636 | 151.17987 | 29 ft | 1 kts | 278° |
| 2026-05-05 04:17 | -33.93635 | 151.17986 | 29 ft | 0 kts | 279° |